Time;durP1;ratioP1;P1;durP2;ratioP2;P2;SDS_P1;SDS_P2;PMS_P1;PMS_P2;Temp;Humidity;BMP_temperature;BMP_pressure;BME280_temperature;BME280_humidity;BME280_pressure;Samples;Min_cycle;Max_cycle;Signal;HPM_P1;HPM_P2
2023/09/14 00:00:14;;;;;;;6.22;5.63;;;17.10;87.70;;;;;;5053396;28;20028;-78
2023/09/14 00:02:41;;;;;;;6.95;4.65;;;17.00;87.40;;;;;;5053315;28;20021;-79
2023/09/14 00:05:06;;;;;;;5.80;5.30;;;17.00;87.50;;;;;;5053249;28;20094;-79
2023/09/14 00:07:32;;;;;;;6.45;5.00;;;16.90;87.30;;;;;;5053369;28;20372;-79
2023/09/14 00:09:58;;;;;;;5.43;4.93;;;16.90;87.20;;;;;;5053277;28;20029;-79
2023/09/14 00:12:24;;;;;;;7.45;5.40;;;16.90;87.10;;;;;;5053185;28;20056;-78
2023/09/14 00:14:50;;;;;;;10.48;6.40;;;16.80;87.30;;;;;;5053152;28;20657;-78
2023/09/14 00:17:15;;;;;;;9.95;6.93;;;16.70;87.30;;;;;;5053095;28;20025;-77
2023/09/14 00:19:41;;;;;;;7.93;6.97;;;16.60;87.50;;;;;;5053055;28;20025;-76
2023/09/14 00:22:06;;;;;;;7.80;7.05;;;16.60;88.00;;;;;;5053098;28;20032;-77
2023/09/14 00:24:32;;;;;;;7.38;6.28;;;16.60;88.10;;;;;;5053099;28;20056;-77
2023/09/14 00:26:57;;;;;;;10.65;8.02;;;16.50;88.40;;;;;;5052851;28;20021;-77
2023/09/14 00:29:23;;;;;;;8.10;7.30;;;16.50;88.40;;;;;;5035141;28;20029;-77
2023/09/14 00:31:49;;;;;;;11.68;8.45;;;16.40;88.40;;;;;;5052838;28;20036;-76
2023/09/14 00:34:14;;;;;;;7.35;6.70;;;16.40;88.50;;;;;;5035078;28;20056;-77
2023/09/14 00:36:40;;;;;;;7.65;7.05;;;16.30;88.90;;;;;;5052750;28;20388;-77
2023/09/14 00:39:08;;;;;;;8.00;7.20;;;16.20;88.80;;;;;;5052809;28;20027;-76
2023/09/14 00:41:34;;;;;;;8.77;7.20;;;16.30;88.90;;;;;;5052876;28;20163;-77
2023/09/14 00:43:59;;;;;;;10.57;6.93;;;16.30;89.00;;;;;;5033891;28;20075;-78
2023/09/14 00:46:25;;;;;;;7.43;6.80;;;16.30;89.10;;;;;;5052696;28;20036;-77
2023/09/14 00:48:50;;;;;;;7.35;6.72;;;16.30;89.00;;;;;;5052782;28;20036;-77
2023/09/14 00:51:17;;;;;;;9.50;7.15;;;16.30;89.10;;;;;;5052695;28;20037;-77
2023/09/14 00:53:43;;;;;;;6.57;6.00;;;16.30;89.20;;;;;;5052668;28;20464;-76
2023/09/14 00:56:10;;;;;;;8.32;7.55;;;16.30;89.30;;;;;;5052511;28;20459;-77
2023/09/14 00:58:37;;;;;;;8.57;7.55;;;16.30;88.80;;;;;;5052455;28;20032;-76
2023/09/14 01:01:03;;;;;;;7.03;6.32;;;16.30;88.90;;;;;;5034491;28;20562;-78
2023/09/14 01:03:29;;;;;;;8.48;6.30;;;16.30;88.60;;;;;;5052480;28;20025;-77
2023/09/14 01:05:55;;;;;;;6.55;6.05;;;16.20;87.90;;;;;;5052249;28;20056;-77
2023/09/14 01:08:21;;;;;;;7.40;6.68;;;16.10;88.20;;;;;;5052352;28;20115;-76
2023/09/14 01:10:46;;;;;;;6.28;5.68;;;16.10;88.70;;;;;;5052361;28;20025;-76
2023/09/14 01:13:25;;;;;;;7.60;6.90;;;16.20;88.90;;;;;;5052460;28;20024;-77
2023/09/14 01:15:54;;;;;;;6.93;6.22;;;16.30;89.00;;;;;;5052313;28;20017;-78
2023/09/14 01:18:29;;;;;;;8.85;6.10;;;16.30;88.70;;;;;;5052109;28;20123;-78
2023/09/14 01:21:24;;;;;;;6.72;6.13;;;16.30;88.40;;;;;;5052281;28;20040;-77
2023/09/14 01:24:13;;;;;;;6.90;5.85;;;16.30;88.40;;;;;;5052393;28;20112;-77
2023/09/14 01:26:40;;;;;;;8.55;7.32;;;16.30;88.30;;;;;;5052247;28;20021;-77
2023/09/14 01:29:06;;;;;;;8.27;7.20;;;16.30;88.10;;;;;;5052378;28;20045;-77
2023/09/14 01:31:32;;;;;;;9.00;6.95;;;16.30;88.00;;;;;;5034451;28;20045;-77
2023/09/14 01:33:58;;;;;;;7.32;6.68;;;16.30;87.70;;;;;;5052161;28;20021;-77
2023/09/14 01:36:36;;;;;;;6.68;5.97;;;16.20;87.50;;;;;;5052205;28;20029;-77
2023/09/14 01:39:04;;;;;;;6.38;5.78;;;16.20;87.70;;;;;;5052152;28;20100;-76
2023/09/14 01:41:31;;;;;;;5.57;5.07;;;16.20;87.60;;;;;;5052183;28;20055;-77
2023/09/14 01:43:57;;;;;;;6.55;5.95;;;16.20;87.70;;;;;;5052138;28;20044;-77
2023/09/14 01:46:24;;;;;;;7.05;6.22;;;16.20;87.90;;;;;;5052128;28;20053;-77
2023/09/14 01:48:50;;;;;;;6.82;6.20;;;16.20;87.90;;;;;;5052101;28;20028;-77
2023/09/14 01:51:15;;;;;;;6.10;5.60;;;16.30;87.80;;;;;;5034149;28;20032;-77
2023/09/14 01:53:41;;;;;;;6.35;5.25;;;16.20;87.50;;;;;;5052063;28;20108;-76
2023/09/14 01:56:06;;;;;;;6.35;5.20;;;16.20;87.60;;;;;;5054469;28;20028;-76
2023/09/14 01:58:32;;;;;;;5.45;5.05;;;16.30;87.80;;;;;;5055893;28;20018;-76
2023/09/14 02:00:57;;;;;;;5.15;4.65;;;16.30;87.70;;;;;;5055824;28;20092;-77
2023/09/14 02:03:24;;;;;;;5.20;4.55;;;16.20;87.60;;;;;;5055810;28;20029;-78
2023/09/14 02:05:58;;;;;;;5.82;5.22;;;16.30;87.70;;;;;;5055691;28;20509;-77
2023/09/14 02:08:23;;;;;;;5.20;4.70;;;16.30;87.70;;;;;;5038039;28;20044;-77
2023/09/14 02:10:49;;;;;;;5.43;4.93;;;16.40;87.60;;;;;;5055598;28;20025;-77
2023/09/14 02:13:14;;;;;;;5.57;5.03;;;16.40;87.40;;;;;;5055642;28;20456;-77
2023/09/14 02:15:40;;;;;;;5.78;5.18;;;16.50;87.40;;;;;;5055608;28;20020;-76
2023/09/14 02:18:06;;;;;;;5.57;5.07;;;16.50;87.20;;;;;;5055392;28;20025;-77
2023/09/14 02:20:31;;;;;;;5.45;5.05;;;16.60;86.90;;;;;;5055500;28;20554;-76
2023/09/14 02:22:57;;;;;;;6.38;5.43;;;16.60;86.70;;;;;;5055317;28;20104;-77
2023/09/14 02:25:22;;;;;;;5.88;5.32;;;16.60;86.50;;;;;;5055388;28;20173;-78
2023/09/14 02:27:48;;;;;;;6.18;4.95;;;16.60;86.40;;;;;;5055224;28;20041;-77
2023/09/14 02:30:13;;;;;;;5.10;4.60;;;16.70;86.50;;;;;;5055259;28;20463;-77
2023/09/14 02:32:39;;;;;;;5.88;4.90;;;16.60;86.40;;;;;;5055085;28;20040;-77
2023/09/14 02:35:05;;;;;;;4.90;4.50;;;16.70;86.40;;;;;;5055125;28;20123;-76
2023/09/14 02:37:31;;;;;;;7.47;5.45;;;16.70;86.30;;;;;;5037245;28;20021;-76
2023/09/14 02:39:56;;;;;;;5.22;4.72;;;16.70;86.20;;;;;;5055046;28;20017;-76
2023/09/14 02:42:22;;;;;;;5.93;5.32;;;16.70;86.10;;;;;;5055049;28;20025;-76
2023/09/14 02:44:47;;;;;;;5.05;4.57;;;16.70;86.10;;;;;;5055018;28;20039;-76
2023/09/14 02:47:13;;;;;;;5.57;5.07;;;16.70;85.90;;;;;;5037111;28;20017;-76
2023/09/14 02:49:38;;;;;;;5.40;4.80;;;16.80;85.80;;;;;;5054841;28;20036;-76
2023/09/14 02:52:04;;;;;;;5.65;5.10;;;16.80;85.70;;;;;;5054674;28;20075;-77
2023/09/14 02:54:30;;;;;;;6.25;5.32;;;16.80;85.70;;;;;;5054978;28;20028;-77
2023/09/14 02:56:55;;;;;;;5.75;5.15;;;16.80;85.70;;;;;;5054748;28;20413;-76
2023/09/14 02:59:21;;;;;;;5.55;4.70;;;16.80;85.80;;;;;;5054677;28;20045;-76
2023/09/14 03:01:49;;;;;;;6.68;5.05;;;16.80;85.90;;;;;;5054625;28;20511;-77
2023/09/14 03:04:15;;;;;;;4.80;4.40;;;16.80;86.00;;;;;;5054632;28;20425;-78
2023/09/14 03:06:40;;;;;;;5.60;5.10;;;16.80;86.20;;;;;;5053501;28;20036;-79
2023/09/14 03:09:06;;;;;;;9.07;5.72;;;16.80;86.30;;;;;;5054401;28;20082;-78
2023/09/14 03:11:32;;;;;;;6.13;5.18;;;16.80;86.20;;;;;;5054329;28;20118;-78
2023/09/14 03:13:57;;;;;;;7.80;5.50;;;16.80;86.00;;;;;;5054428;28;20151;-78
2023/09/14 03:16:23;;;;;;;6.65;6.05;;;16.80;85.90;;;;;;5054190;28;20154;-78
2023/09/14 03:18:48;;;;;;;7.22;5.82;;;16.80;85.80;;;;;;5054394;28;20049;-78
2023/09/14 03:21:27;;;;;;;7.97;6.00;;;16.80;85.50;;;;;;5054252;28;20035;-79
2023/09/14 03:23:53;;;;;;;6.55;5.95;;;16.90;85.60;;;;;;5054070;28;20105;-77
2023/09/14 03:26:19;;;;;;;7.50;6.15;;;16.90;85.60;;;;;;5054262;28;20398;-78
2023/09/14 03:28:48;;;;;;;6.63;6.03;;;16.90;85.70;;;;;;5053919;28;20055;-78
2023/09/14 03:31:13;;;;;;;5.53;5.03;;;16.90;85.70;;;;;;5053993;28;20025;-78
2023/09/14 03:33:39;;;;;;;6.55;5.38;;;16.90;85.80;;;;;;5054076;28;20037;-77
2023/09/14 03:36:05;;;;;;;5.40;5.00;;;17.00;85.80;;;;;;5053945;28;20032;-78
2023/09/14 03:38:30;;;;;;;6.70;5.88;;;16.90;85.90;;;;;;5054021;28;20059;-78
2023/09/14 03:40:56;;;;;;;6.07;5.45;;;16.90;86.10;;;;;;5053910;28;20033;-78
2023/09/14 03:43:21;;;;;;;8.27;6.57;;;16.90;86.10;;;;;;5053809;28;20056;-78
2023/09/14 03:45:47;;;;;;;7.90;7.07;;;16.90;86.30;;;;;;5053829;28;20033;-78
2023/09/14 03:48:13;;;;;;;8.60;7.55;;;16.80;86.40;;;;;;5053623;28;20021;-78
2023/09/14 03:50:38;;;;;;;8.13;7.22;;;16.70;86.30;;;;;;5053252;28;20025;-77
2023/09/14 03:53:04;;;;;;;7.15;6.45;;;16.70;86.50;;;;;;5053226;28;20037;-77
2023/09/14 03:55:30;;;;;;;7.10;6.40;;;16.70;86.60;;;;;;5053481;28;20053;-77
2023/09/14 03:57:57;;;;;;;8.15;7.32;;;16.70;86.70;;;;;;5053554;28;20495;-77
2023/09/14 04:00:23;;;;;;;8.68;7.75;;;16.70;86.70;;;;;;5053341;28;20025;-77
2023/09/14 04:02:49;;;;;;;8.25;7.43;;;16.70;86.80;;;;;;5035507;28;20428;-78
2023/09/14 04:05:17;;;;;;;8.93;8.00;;;16.80;86.70;;;;;;5051997;28;20040;-78
2023/09/14 04:07:44;;;;;;;8.35;7.55;;;16.80;86.50;;;;;;5053456;28;20108;-77
2023/09/14 04:10:10;;;;;;;9.30;8.40;;;16.80;86.40;;;;;;5053305;28;20024;-78
2023/09/14 04:12:42;;;;;;;11.68;10.10;;;16.80;86.20;;;;;;5053554;28;20496;-79
2023/09/14 04:15:09;;;;;;;12.07;10.35;;;16.80;86.00;;;;;;5053176;28;20100;-78
2023/09/14 04:17:35;;;;;;;16.65;13.43;;;16.80;86.00;;;;;;5052929;28;20028;-79
2023/09/14 04:20:04;;;;;;;14.48;11.75;;;16.80;86.10;;;;;;5053150;28;20021;-78
2023/09/14 04:22:30;;;;;;;14.68;11.95;;;16.70;86.40;;;;;;5035235;28;20033;-78
2023/09/14 04:24:55;;;;;;;16.08;13.40;;;16.70;87.30;;;;;;5035283;28;20032;-78
2023/09/14 04:27:21;;;;;;;16.10;14.40;;;16.70;86.50;;;;;;5053027;28;20041;-78
2023/09/14 04:29:46;;;;;;;15.73;13.82;;;16.60;86.40;;;;;;5035478;28;20502;-78
2023/09/14 04:32:12;;;;;;;20.23;16.35;;;16.70;86.40;;;;;;5052998;28;20102;-77
2023/09/14 04:34:37;;;;;;;15.40;13.45;;;16.60;86.30;;;;;;5052976;28;20033;-77
2023/09/14 04:37:04;;;;;;;26.27;18.80;;;16.60;86.50;;;;;;5053023;28;20426;-78
2023/09/14 04:39:29;;;;;;;18.08;16.13;;;16.60;86.40;;;;;;5053109;28;20044;-78
2023/09/14 04:41:55;;;;;;;23.08;18.40;;;16.50;86.60;;;;;;5053134;28;20094;-78
2023/09/14 04:44:20;;;;;;;22.35;18.38;;;16.50;86.90;;;;;;5053100;28;20029;-78
2023/09/14 04:46:46;;;;;;;22.23;17.30;;;16.50;86.90;;;;;;5052761;28;20513;-79
2023/09/14 04:51:47;;;;;;;17.77;15.90;;;16.50;87.10;;;;;;5605421;22;20068;-78
2023/09/14 04:54:13;;;;;;;22.00;17.83;;;16.60;86.90;;;;;;5071967;28;20055;-77
2023/09/14 04:56:38;;;;;;;22.52;18.15;;;16.60;86.80;;;;;;5072727;28;20518;-77
2023/09/14 04:59:04;;;;;;;25.95;20.13;;;16.60;86.50;;;;;;5072576;28;20078;-77
2023/09/14 05:01:30;;;;;;;20.85;18.63;;;16.60;87.30;;;;;;5072723;28;20020;-78
2023/09/14 05:03:55;;;;;;;22.20;18.30;;;16.60;86.30;;;;;;5072748;28;20107;-77
2023/09/14 05:06:21;;;;;;;26.45;19.90;;;16.60;86.40;;;;;;5072713;28;20062;-77
2023/09/14 05:08:46;;;;;;;27.65;22.60;;;16.70;86.40;;;;;;5072680;28;20020;-77
2023/09/14 05:11:12;;;;;;;30.17;24.55;;;16.70;86.60;;;;;;5073267;28;20040;-76
2023/09/14 05:13:37;;;;;;;35.53;26.77;;;16.70;86.30;;;;;;5083824;28;20026;-76
2023/09/14 05:16:03;;;;;;;38.22;28.00;;;16.60;86.10;;;;;;5075835;28;20414;-76
2023/09/14 05:18:29;;;;;;;35.10;27.58;;;16.60;86.20;;;;;;5072482;28;20020;-76
2023/09/14 05:20:54;;;;;;;40.65;28.95;;;16.60;86.50;;;;;;5071965;28;20036;-75
2023/09/14 05:23:20;;;;;;;39.05;29.63;;;16.50;86.70;;;;;;5072072;28;20470;-75
2023/09/14 05:25:46;;;;;;;46.78;33.42;;;16.50;86.80;;;;;;5070855;28;20493;-75
2023/09/14 05:28:12;;;;;;;45.88;31.13;;;16.40;87.00;;;;;;5072118;28;20029;-75
2023/09/14 05:30:38;;;;;;;43.15;28.80;;;16.30;87.50;;;;;;5073898;28;20032;-75
2023/09/14 05:33:04;;;;;;;38.25;27.77;;;16.30;87.90;;;;;;5075674;28;20210;-74
2023/09/14 05:35:30;;;;;;;39.92;26.27;;;16.40;87.70;;;;;;5076006;28;20552;-76
2023/09/14 05:37:56;;;;;;;43.30;30.58;;;16.40;87.50;;;;;;5075733;28;20074;-77
2023/09/14 05:40:21;;;;;;;35.08;24.73;;;16.40;87.10;;;;;;5076191;28;20019;-76
2023/09/14 05:42:47;;;;;;;36.17;26.02;;;16.50;87.20;;;;;;5076251;28;20025;-74
2023/09/14 05:45:13;;;;;;;43.53;30.42;;;16.50;87.10;;;;;;5075643;28;20397;-77
2023/09/14 05:47:38;;;;;;;34.72;26.17;;;16.50;86.70;;;;;;5075492;28;20044;-74
2023/09/14 05:50:06;;;;;;;30.52;23.63;;;16.40;86.80;;;;;;5075459;28;20016;-77
2023/09/14 05:52:32;;;;;;;35.58;25.63;;;16.50;86.90;;;;;;5092320;28;20425;-76
2023/09/14 05:54:58;;;;;;;39.63;27.80;;;16.60;86.70;;;;;;5095728;28;20021;-76
2023/09/14 05:57:24;;;;;;;34.00;24.63;;;16.60;86.50;;;;;;5095772;28;20110;-77
2023/09/14 05:59:49;;;;;;;31.83;23.10;;;16.70;86.70;;;;;;5077711;28;20048;-76
2023/09/14 06:02:16;;;;;;;31.30;24.40;;;16.70;86.50;;;;;;5096343;28;20080;-77
2023/09/14 06:04:41;;;;;;;32.10;24.40;;;16.80;86.10;;;;;;5095247;28;20395;-78
2023/09/14 06:07:07;;;;;;;30.58;23.95;;;16.80;85.90;;;;;;5077519;28;20083;-78
2023/09/14 06:09:33;;;;;;;32.20;23.08;;;16.90;85.90;;;;;;5095706;28;20028;-77
2023/09/14 06:11:59;;;;;;;25.73;21.88;;;16.90;85.50;;;;;;5077476;28;20028;-76
2023/09/14 06:14:25;;;;;;;31.67;24.15;;;17.00;85.00;;;;;;5095848;28;20055;-77
2023/09/14 06:16:50;;;;;;;30.05;23.88;;;17.00;84.50;;;;;;5095870;28;20415;-77
2023/09/14 06:19:16;;;;;;;26.77;20.98;;;17.00;84.70;;;;;;5095704;28;20023;-77
2023/09/14 06:21:41;;;;;;;27.20;21.00;;;17.00;84.90;;;;;;5095396;28;20363;-77
2023/09/14 06:24:07;;;;;;;32.92;25.63;;;17.10;84.90;;;;;;5095564;28;20024;-76
2023/09/14 06:26:33;;;;;;;25.67;20.27;;;17.10;84.50;;;;;;5095890;28;20024;-76
2023/09/14 06:28:58;;;;;;;30.80;21.38;;;17.10;84.60;;;;;;5095723;28;20024;-78
2023/09/14 06:31:24;;;;;;;27.27;20.25;;;17.20;84.60;;;;;;5095679;28;20032;-78
2023/09/14 06:33:50;;;;;;;26.23;21.02;;;17.20;84.40;;;;;;5095453;28;20039;-77
2023/09/14 06:36:18;;;;;;;20.90;18.20;;;17.30;84.40;;;;;;5078099;28;20020;-78
2023/09/14 06:38:45;;;;;;;26.10;20.92;;;17.30;84.10;;;;;;5095489;28;20024;-78
2023/09/14 06:41:10;;;;;;;33.85;19.33;;;17.40;83.70;;;;;;5095587;28;20020;-78
2023/09/14 06:43:36;;;;;;;21.98;14.23;;;17.50;85.30;;;;;;5095290;28;20367;-78
2023/09/14 06:46:01;;;;;;;21.90;14.85;;;17.70;87.00;;;;;;5093792;28;20039;-78
2023/09/14 06:48:27;;;;;;;22.90;15.15;;;17.80;85.90;;;;;;5095256;28;20027;-76
2023/09/14 06:50:52;;;;;;;18.95;13.85;;;17.90;85.00;;;;;;5095157;28;20095;-77
2023/09/14 06:53:18;;;;;;;19.48;14.35;;;18.00;83.40;;;;;;5095099;28;20032;-78
2023/09/14 06:55:44;;;;;;;17.10;13.68;;;18.20;82.10;;;;;;5095070;28;20477;-75
2023/09/14 06:58:09;;;;;;;17.85;12.95;;;18.30;81.80;;;;;;5095150;28;20036;-77
2023/09/14 07:00:35;;;;;;;21.83;14.88;;;18.50;79.80;;;;;;5095204;28;20474;-77
2023/09/14 07:03:02;;;;;;;17.27;13.95;;;18.60;79.00;;;;;;5110763;28;20028;-77
2023/09/14 07:05:29;;;;;;;14.25;12.23;;;18.70;77.90;;;;;;5077043;28;20071;-76
2023/09/14 07:07:55;;;;;;;13.35;11.93;;;18.80;77.10;;;;;;5076757;28;20063;-76
2023/09/14 07:10:20;;;;;;;17.98;13.55;;;18.90;76.80;;;;;;5110754;28;20066;-76
2023/09/14 07:12:46;;;;;;;14.45;11.48;;;19.00;76.10;;;;;;5110746;28;20100;-76
2023/09/14 07:15:12;;;;;;;15.15;12.45;;;19.00;75.70;;;;;;5110633;28;20028;-76
2023/09/14 07:17:38;;;;;;;17.35;11.95;;;19.20;75.10;;;;;;5110439;28;20104;-77
2023/09/14 07:20:05;;;;;;;13.90;12.38;;;19.20;74.70;;;;;;5077044;28;20497;-77
2023/09/14 07:22:30;;;;;;;14.15;12.40;;;19.00;74.00;;;;;;5076477;28;20024;-76
2023/09/14 07:24:56;;;;;;;13.50;11.90;;;19.10;74.50;;;;;;5110342;28;20024;-77
2023/09/14 07:27:22;;;;;;;11.05;9.25;;;19.10;74.40;;;;;;5110187;28;20378;-76
2023/09/14 07:29:48;;;;;;;12.15;10.30;;;19.10;74.20;;;;;;5094722;28;20024;-76
2023/09/14 07:32:14;;;;;;;10.75;9.50;;;19.20;73.70;;;;;;5094863;28;20405;-76
2023/09/14 07:34:40;;;;;;;13.48;11.20;;;19.40;73.40;;;;;;5094007;28;20051;-75
2023/09/14 07:37:05;;;;;;;18.10;12.13;;;19.40;73.00;;;;;;5114753;28;20024;-76
2023/09/14 07:39:31;;;;;;;16.08;10.93;;;19.50;72.80;;;;;;5100700;28;20056;-76
2023/09/14 07:41:56;;;;;;;15.73;11.15;;;19.60;72.70;;;;;;5110567;28;20118;-76
2023/09/14 07:44:23;;;;;;;11.30;9.52;;;19.60;72.20;;;;;;5110338;28;20020;-78
2023/09/14 07:46:48;;;;;;;12.77;10.68;;;19.70;72.00;;;;;;5094184;28;20644;-76
2023/09/14 07:49:14;;;;;;;13.43;10.73;;;19.80;71.50;;;;;;5092772;28;20028;-77
2023/09/14 07:51:39;;;;;;;14.82;11.27;;;19.90;72.20;;;;;;5109667;28;20050;-76
2023/09/14 07:54:05;;;;;;;14.18;11.10;;;19.90;71.10;;;;;;5109687;28;20116;-75
2023/09/14 07:56:31;;;;;;;15.68;11.13;;;20.00;70.80;;;;;;5114165;28;20020;-75
2023/09/14 07:58:56;;;;;;;15.57;12.60;;;20.00;71.00;;;;;;5093899;28;20028;-75
2023/09/14 08:01:22;;;;;;;12.88;11.48;;;19.90;71.00;;;;;;5109800;28;20115;-77
2023/09/14 08:03:48;;;;;;;17.20;12.23;;;19.90;70.70;;;;;;5109498;28;20049;-76
2023/09/14 08:06:18;;;;;;;16.10;12.27;;;19.90;70.30;;;;;;5094187;28;20461;-75
2023/09/14 08:08:44;;;;;;;14.00;10.32;;;20.00;70.20;;;;;;5093835;28;20024;-76
2023/09/14 08:11:11;;;;;;;13.30;10.77;;;20.10;70.20;;;;;;5093340;28;20040;-76
2023/09/14 08:13:37;;;;;;;12.63;9.77;;;20.10;69.80;;;;;;5109252;28;20470;-76
2023/09/14 08:16:06;;;;;;;11.95;9.90;;;20.20;69.50;;;;;;5075189;28;20074;-77
2023/09/14 08:18:32;;;;;;;14.45;11.40;;;20.30;69.20;;;;;;5093647;28;20027;-77
2023/09/14 08:20:58;;;;;;;13.93;11.82;;;20.30;69.10;;;;;;5109519;28;20126;-77
2023/09/14 08:23:24;;;;;;;11.27;10.18;;;20.30;68.90;;;;;;5093091;28;20118;-76
2023/09/14 08:25:49;;;;;;;10.57;9.25;;;20.10;68.90;;;;;;5093312;28;20034;-76
2023/09/14 08:28:19;;;;;;;12.88;9.95;;;20.20;69.20;;;;;;5092863;28;20020;-79
2023/09/14 08:30:45;;;;;;;12.05;9.77;;;20.30;69.00;;;;;;5075369;28;20043;-78
2023/09/14 08:33:11;;;;;;;11.40;9.60;;;20.40;68.80;;;;;;5074830;28;20028;-77
2023/09/14 08:35:37;;;;;;;17.42;12.90;;;20.50;68.10;;;;;;5093150;28;20379;-77
2023/09/14 08:38:07;;;;;;;12.35;11.05;;;20.50;67.00;;;;;;5108938;28;20393;-76
2023/09/14 08:40:34;;;;;;;13.13;9.88;;;20.40;67.10;;;;;;5109250;28;20057;-76
2023/09/14 08:43:02;;;;;;;12.95;11.38;;;20.40;67.80;;;;;;5075326;28;20074;-76
2023/09/14 08:45:30;;;;;;;14.35;11.00;;;20.20;68.80;;;;;;5108871;28;20470;-75
2023/09/14 08:47:56;;;;;;;14.07;11.40;;;20.10;69.40;;;;;;5075165;28;20031;-75
2023/09/14 08:50:28;;;;;;;17.08;14.05;;;20.00;69.90;;;;;;5093244;28;20020;-78
2023/09/14 08:52:54;;;;;;;14.55;11.07;;;19.90;70.00;;;;;;5092903;28;20048;-76
2023/09/14 08:55:22;;;;;;;12.02;10.77;;;19.90;70.30;;;;;;5075110;28;20027;-76
2023/09/14 08:57:49;;;;;;;8.77;7.75;;;20.00;70.10;;;;;;5093107;28;20031;-75
2023/09/14 09:00:15;;;;;;;12.77;10.48;;;20.20;69.60;;;;;;5092266;28;20055;-74
2023/09/14 09:02:48;;;;;;;14.98;13.38;;;20.40;68.30;;;;;;5074049;28;20032;-75
2023/09/14 09:05:15;;;;;;;16.25;11.25;;;20.30;67.00;;;;;;5092014;28;20155;-75
2023/09/14 09:07:42;;;;;;;12.77;11.43;;;20.20;68.60;;;;;;5074501;28;20624;-76
2023/09/14 09:10:26;;;;;;;11.30;9.80;;;20.30;68.20;;;;;;5069189;28;20028;-77
2023/09/14 09:13:03;;;;;;;15.02;11.93;;;20.60;68.60;;;;;;5075437;28;20028;-78
2023/09/14 09:15:34;;;;;;;13.82;11.18;;;20.60;68.40;;;;;;5074508;28;20486;-77
2023/09/14 09:18:05;;;;;;;13.27;10.25;;;20.60;67.80;;;;;;5074173;28;20043;-75
2023/09/14 09:20:33;;;;;;;13.13;10.73;;;20.80;67.50;;;;;;5072063;28;20027;-75
2023/09/14 09:23:01;;;;;;;10.77;9.25;;;20.90;66.20;;;;;;5074291;28;20046;-74
2023/09/14 09:25:29;;;;;;;10.73;9.63;;;20.90;66.90;;;;;;5079120;28;20390;-74
2023/09/14 09:28:03;;;;;;;11.68;9.60;;;21.00;65.70;;;;;;5072410;28;20543;-75
2023/09/14 09:30:33;;;;;;;9.85;8.85;;;21.20;65.40;;;;;;5089895;28;20030;-73
2023/09/14 09:33:01;;;;;;;7.72;6.93;;;21.60;64.20;;;;;;5092221;28;20028;-74
2023/09/14 09:35:29;;;;;;;8.32;7.05;;;22.00;63.70;;;;;;5089373;28;20012;-75
2023/09/14 09:37:57;;;;;;;9.65;7.85;;;22.40;62.20;;;;;;5074105;28;20052;-73
2023/09/14 09:40:27;;;;;;;8.65;7.75;;;22.70;59.80;;;;;;5073655;28;20016;-76
2023/09/14 09:42:54;;;;;;;11.30;9.60;;;22.70;59.90;;;;;;5092369;28;20024;-77
2023/09/14 09:45:23;;;;;;;11.95;8.65;;;22.40;59.80;;;;;;5074660;28;20023;-75
2023/09/14 09:47:49;;;;;;;7.90;7.10;;;22.40;60.60;;;;;;5074411;28;20034;-76
2023/09/14 09:50:15;;;;;;;10.02;8.43;;;22.30;60.60;;;;;;5074204;28;20032;-74
2023/09/14 09:52:42;;;;;;;9.63;8.40;;;22.10;61.90;;;;;;5073736;28;20048;-77
2023/09/14 09:55:25;;;;;;;13.52;9.75;;;22.10;62.10;;;;;;5091151;28;20489;-77
2023/09/14 09:57:57;;;;;;;12.45;10.48;;;22.20;61.80;;;;;;5091143;28;20035;-75
2023/09/14 10:00:28;;;;;;;11.52;9.40;;;22.00;62.30;;;;;;5091428;28;20092;-77
2023/09/14 10:02:54;;;;;;;8.88;7.97;;;22.00;61.50;;;;;;5092800;28;20035;-77
2023/09/14 10:05:42;;;;;;;9.27;7.40;;;22.00;61.50;;;;;;5074193;28;20024;-79
2023/09/14 10:10:37;;;;;;;8.77;7.63;;;22.40;61.60;;;;;;5076241;22;20099;-78
2023/09/14 10:13:04;;;;;;;7.30;5.82;;;22.60;61.00;;;;;;5053713;28;20051;-78
2023/09/14 10:15:31;;;;;;;8.48;6.05;;;22.80;60.80;;;;;;5071958;28;20016;-79
2023/09/14 10:17:57;;;;;;;10.25;7.03;;;23.00;60.00;;;;;;5075358;28;20017;-79
2023/09/14 10:20:24;;;;;;;8.07;6.13;;;23.40;59.00;;;;;;5075033;28;20130;-80
2023/09/14 10:22:51;;;;;;;7.60;6.80;;;23.60;58.60;;;;;;5075260;28;20051;-79
2023/09/14 10:25:18;;;;;;;12.20;8.18;;;23.90;56.80;;;;;;5061588;28;20447;-79
2023/09/14 10:27:44;;;;;;;10.55;7.10;;;23.80;55.50;;;;;;5075489;28;20589;-79
2023/09/14 10:32:39;;;;;;;8.95;6.45;;;23.80;55.70;;;;;;5059258;22;20061;-79
2023/09/14 10:35:07;;;;;;;6.45;5.85;;;23.80;55.40;;;;;;5037315;28;20020;-79
2023/09/14 10:37:35;;;;;;;6.07;5.47;;;24.00;55.60;;;;;;5054928;28;20024;-79
2023/09/14 10:40:04;;;;;;;6.22;5.63;;;24.20;54.90;;;;;;5054930;28;20456;-79
2023/09/14 10:42:30;;;;;;;5.05;4.30;;;24.20;54.70;;;;;;5055093;28;20048;-78
2023/09/14 10:44:56;;;;;;;5.28;4.25;;;24.60;54.60;;;;;;5054955;28;20029;-79
2023/09/14 10:47:25;;;;;;;5.68;5.10;;;25.00;53.50;;;;;;5036782;28;20124;-79
2023/09/14 10:49:51;;;;;;;7.80;7.00;;;25.20;52.10;;;;;;5054513;28;20021;-79
2023/09/14 10:52:29;;;;;;;8.40;6.40;;;24.70;51.30;;;;;;5054801;28;20033;-82
2023/09/14 10:54:56;;;;;;;7.43;6.50;;;24.30;53.10;;;;;;5054523;28;20541;-77
2023/09/14 10:57:28;;;;;;;8.90;6.13;;;23.80;54.10;;;;;;5054393;28;20074;-79
2023/09/14 10:59:58;;;;;;;6.30;5.53;;;23.80;54.30;;;;;;5054668;28;20029;-79
2023/09/14 11:02:36;;;;;;;6.93;4.40;;;23.50;55.00;;;;;;5054370;28;20387;-78
2023/09/14 11:05:23;;;;;;;5.38;4.57;;;23.60;56.20;;;;;;5054509;28;20032;-78
2023/09/14 11:08:10;;;;;;;5.63;4.72;;;23.70;54.80;;;;;;5054653;28;20411;-79
2023/09/14 11:10:38;;;;;;;5.03;3.88;;;23.60;54.60;;;;;;5036634;28;20093;-78
2023/09/14 11:13:19;;;;;;;3.83;3.53;;;23.60;54.60;;;;;;5054282;28;20119;-78
2023/09/14 11:16:05;;;;;;;5.82;3.58;;;23.70;55.20;;;;;;5054625;28;20063;-79
2023/09/14 11:18:35;;;;;;;5.13;4.03;;;23.70;54.50;;;;;;5054607;28;20025;-79
2023/09/14 11:21:01;;;;;;;6.72;3.78;;;23.90;53.90;;;;;;5054456;28;20060;-79
2023/09/14 11:23:36;;;;;;;5.38;3.97;;;24.00;54.10;;;;;;5054109;28;20028;-79
2023/09/14 11:26:02;;;;;;;3.75;3.45;;;24.10;54.90;;;;;;5054138;28;20483;-78
2023/09/14 11:28:30;;;;;;;4.40;3.88;;;24.20;52.80;;;;;;5053021;28;20437;-79
2023/09/14 11:30:56;;;;;;;7.60;5.28;;;24.30;53.10;;;;;;5053728;28;20112;-78
2023/09/14 11:33:23;;;;;;;4.97;4.32;;;24.30;51.80;;;;;;5054212;28;20544;-77
2023/09/14 11:35:51;;;;;;;6.00;4.07;;;24.30;52.80;;;;;;5054112;28;20029;-78
2023/09/14 11:38:19;;;;;;;4.68;3.58;;;24.30;52.40;;;;;;5040625;28;20043;-79
2023/09/14 11:40:47;;;;;;;4.18;3.40;;;24.20;51.70;;;;;;5054297;28;20386;-78
2023/09/14 11:43:21;;;;;;;4.45;3.88;;;24.40;52.20;;;;;;5036437;28;20032;-79
2023/09/14 11:45:56;;;;;;;3.63;3.10;;;24.60;52.40;;;;;;5053765;28;20390;-79
2023/09/14 11:48:23;;;;;;;3.65;3.35;;;24.80;52.40;;;;;;5053937;28;20024;-79
2023/09/14 11:50:51;;;;;;;5.30;3.55;;;24.90;50.90;;;;;;5052111;28;20483;-79
2023/09/14 11:53:18;;;;;;;3.50;3.20;;;24.90;49.30;;;;;;5036083;28;20036;-83
2023/09/14 11:55:46;;;;;;;5.97;3.30;;;24.60;49.80;;;;;;5036375;28;20522;-79
2023/09/14 11:58:13;;;;;;;3.60;2.70;;;24.60;50.60;;;;;;5053964;28;20029;-79
2023/09/14 12:00:42;;;;;;;5.55;3.67;;;24.80;50.50;;;;;;5053789;28;20497;-79
2023/09/14 12:03:08;;;;;;;4.55;3.88;;;24.90;49.80;;;;;;5053690;28;20021;-80
2023/09/14 12:05:34;;;;;;;5.22;3.15;;;24.60;48.90;;;;;;5053511;28;20395;-79
2023/09/14 12:08:08;;;;;;;4.50;3.00;;;24.40;49.00;;;;;;5053501;28;20079;-79
2023/09/14 12:10:34;;;;;;;2.85;2.60;;;24.50;49.40;;;;;;5053649;28;20437;-80
2023/09/14 12:13:08;;;;;;;3.40;2.67;;;24.40;48.00;;;;;;5053529;28;20029;-80
2023/09/14 12:15:34;;;;;;;4.18;2.95;;;24.40;48.20;;;;;;5035588;28;20119;-80
2023/09/14 12:17:59;;;;;;;3.17;2.97;;;24.40;48.00;;;;;;5053339;28;20521;-81
2023/09/14 12:20:25;;;;;;;2.95;2.53;;;24.00;47.80;;;;;;5053378;28;20025;-79
2023/09/14 12:22:51;;;;;;;3.42;2.85;;;24.00;48.00;;;;;;5035242;28;20043;-79
2023/09/14 12:25:19;;;;;;;3.72;2.60;;;24.20;48.80;;;;;;5053457;28;20074;-85
2023/09/14 12:27:45;;;;;;;3.70;2.65;;;24.30;48.60;;;;;;5053268;28;20048;-80
2023/09/14 12:30:12;;;;;;;3.42;2.30;;;24.30;48.20;;;;;;5035697;28;20021;-77
2023/09/14 12:32:39;;;;;;;3.53;2.63;;;24.30;47.30;;;;;;5053570;28;20139;-75
2023/09/14 12:35:06;;;;;;;2.60;2.20;;;24.20;46.80;;;;;;5053432;28;20021;-78
2023/09/14 12:37:32;;;;;;;6.15;2.90;;;24.20;48.00;;;;;;5053262;28;20025;-78
2023/09/14 12:40:10;;;;;;;3.80;2.50;;;24.40;49.10;;;;;;5035700;28;20043;-76
2023/09/14 12:42:36;;;;;;;3.47;2.67;;;24.40;48.70;;;;;;5053428;28;20032;-78
2023/09/14 12:45:07;;;;;;;2.38;1.98;;;24.50;48.50;;;;;;5053205;28;20106;-75